sensor_id;sensor_type;location;lat;lon;timestamp;P1;durP1;ratioP1;P2;durP2;ratioP2
7041;SDS011;3562;48.892;9.130;2022-07-06T06:35:49;226.88;;;72.13;;
7041;SDS011;3562;48.892;9.130;2022-07-06T06:38:16;225.97;;;72.20;;
7041;SDS011;3562;48.892;9.130;2022-07-06T06:40:42;225.15;;;72.00;;
7041;SDS011;3562;48.892;9.130;2022-07-06T06:43:08;224.97;;;71.93;;
7041;SDS011;3562;48.892;9.130;2022-07-06T06:45:34;224.60;;;72.30;;
7041;SDS011;3562;48.892;9.130;2022-07-06T06:48:00;224.18;;;71.50;;
7041;SDS011;3562;48.892;9.130;2022-07-06T06:50:27;224.10;;;71.40;;
7041;SDS011;3562;48.892;9.130;2022-07-06T06:52:53;224.55;;;71.50;;
7041;SDS011;3562;48.892;9.130;2022-07-06T06:55:19;225.68;;;72.00;;
7041;SDS011;3562;48.892;9.130;2022-07-06T06:57:45;225.68;;;71.80;;
7041;SDS011;3562;48.892;9.130;2022-07-06T07:00:11;226.43;;;71.80;;
7041;SDS011;3562;48.892;9.130;2022-07-06T07:02:37;225.73;;;71.72;;
7041;SDS011;3562;48.892;9.130;2022-07-06T07:05:04;226.40;;;71.78;;
7041;SDS011;3562;48.892;9.130;2022-07-06T07:07:30;227.07;;;71.70;;
7041;SDS011;3562;48.892;9.130;2022-07-06T07:09:56;227.60;;;71.80;;
7041;SDS011;3562;48.892;9.130;2022-07-06T07:12:22;226.93;;;71.53;;
7041;SDS011;3562;48.892;9.130;2022-07-06T07:14:48;227.15;;;71.55;;
7041;SDS011;3562;48.892;9.130;2022-07-06T07:17:14;228.30;;;71.90;;
7041;SDS011;3562;48.892;9.130;2022-07-06T07:19:41;227.82;;;72.10;;
7041;SDS011;3562;48.892;9.130;2022-07-06T07:22:07;227.38;;;71.63;;
7041;SDS011;3562;48.892;9.130;2022-07-06T07:24:33;227.80;;;71.80;;
7041;SDS011;3562;48.892;9.130;2022-07-06T07:26:59;227.15;;;71.70;;
7041;SDS011;3562;48.892;9.130;2022-07-06T07:29:25;227.07;;;71.60;;
7041;SDS011;3562;48.892;9.130;2022-07-06T07:31:51;226.07;;;71.38;;
7041;SDS011;3562;48.892;9.130;2022-07-06T07:34:17;228.05;;;72.00;;
7041;SDS011;3562;48.892;9.130;2022-07-06T07:36:43;227.23;;;71.82;;
7041;SDS011;3562;48.892;9.130;2022-07-06T07:39:09;226.82;;;71.85;;
7041;SDS011;3562;48.892;9.130;2022-07-06T07:41:35;226.77;;;71.60;;
7041;SDS011;3562;48.892;9.130;2022-07-06T07:44:01;227.52;;;71.97;;
7041;SDS011;3562;48.892;9.130;2022-07-06T07:46:27;226.82;;;71.93;;
7041;SDS011;3562;48.892;9.130;2022-07-06T07:48:53;227.23;;;71.90;;
7041;SDS011;3562;48.892;9.130;2022-07-06T07:51:19;227.65;;;72.10;;
7041;SDS011;3562;48.892;9.130;2022-07-06T07:53:45;227.53;;;72.00;;
7041;SDS011;3562;48.892;9.130;2022-07-06T07:56:11;227.50;;;71.80;;
7041;SDS011;3562;48.892;9.130;2022-07-06T07:58:37;227.90;;;71.97;;
7041;SDS011;3562;48.892;9.130;2022-07-06T08:01:04;226.90;;;71.80;;
7041;SDS011;3562;48.892;9.130;2022-07-06T08:03:30;227.93;;;71.90;;
7041;SDS011;3562;48.892;9.130;2022-07-06T08:05:57;228.40;;;72.10;;
7041;SDS011;3562;48.892;9.130;2022-07-06T08:08:23;227.65;;;71.85;;
7041;SDS011;3562;48.892;9.130;2022-07-06T08:10:49;227.77;;;72.00;;
7041;SDS011;3562;48.892;9.130;2022-07-06T08:13:15;227.10;;;71.83;;
7041;SDS011;3562;48.892;9.130;2022-07-06T08:15:41;227.18;;;71.50;;
7041;SDS011;3562;48.892;9.130;2022-07-06T08:18:07;227.47;;;71.80;;
7041;SDS011;3562;48.892;9.130;2022-07-06T08:20:34;227.73;;;71.90;;
7041;SDS011;3562;48.892;9.130;2022-07-06T08:23:00;227.27;;;71.88;;
7041;SDS011;3562;48.892;9.130;2022-07-06T08:25:26;228.43;;;72.00;;
7041;SDS011;3562;48.892;9.130;2022-07-06T08:27:52;227.68;;;72.00;;
7041;SDS011;3562;48.892;9.130;2022-07-06T08:30:19;228.45;;;71.90;;
7041;SDS011;3562;48.892;9.130;2022-07-06T08:32:45;229.77;;;72.20;;
7041;SDS011;3562;48.892;9.130;2022-07-06T08:35:11;229.45;;;72.30;;
7041;SDS011;3562;48.892;9.130;2022-07-06T08:37:37;228.27;;;71.80;;
7041;SDS011;3562;48.892;9.130;2022-07-06T08:40:04;228.70;;;72.20;;
7041;SDS011;3562;48.892;9.130;2022-07-06T08:42:31;228.93;;;72.00;;
7041;SDS011;3562;48.892;9.130;2022-07-06T08:45:01;231.02;;;71.90;;
7041;SDS011;3562;48.892;9.130;2022-07-06T08:47:28;229.70;;;71.80;;
7041;SDS011;3562;48.892;9.130;2022-07-06T08:49:54;230.65;;;72.25;;
7041;SDS011;3562;48.892;9.130;2022-07-06T08:52:21;230.90;;;72.13;;
7041;SDS011;3562;48.892;9.130;2022-07-06T08:54:48;230.93;;;72.40;;
7041;SDS011;3562;48.892;9.130;2022-07-06T08:57:14;230.70;;;72.40;;
7041;SDS011;3562;48.892;9.130;2022-07-06T08:59:40;229.48;;;72.10;;
7041;SDS011;3562;48.892;9.130;2022-07-06T09:02:06;229.75;;;72.40;;
7041;SDS011;3562;48.892;9.130;2022-07-06T09:04:32;229.73;;;72.38;;
7041;SDS011;3562;48.892;9.130;2022-07-06T09:06:59;229.50;;;72.38;;
7041;SDS011;3562;48.892;9.130;2022-07-06T09:09:25;228.88;;;72.10;;
7041;SDS011;3562;48.892;9.130;2022-07-06T09:11:52;228.65;;;72.28;;
7041;SDS011;3562;48.892;9.130;2022-07-06T09:14:18;228.52;;;72.40;;
7041;SDS011;3562;48.892;9.130;2022-07-06T09:16:44;228.38;;;72.20;;
7041;SDS011;3562;48.892;9.130;2022-07-06T09:19:11;228.20;;;71.87;;
7041;SDS011;3562;48.892;9.130;2022-07-06T09:21:38;229.65;;;72.30;;
7041;SDS011;3562;48.892;9.130;2022-07-06T09:24:07;228.07;;;71.70;;
7041;SDS011;3562;48.892;9.130;2022-07-06T09:26:33;228.32;;;72.18;;
7041;SDS011;3562;48.892;9.130;2022-07-06T09:28:59;229.13;;;72.43;;
7041;SDS011;3562;48.892;9.130;2022-07-06T09:31:25;228.20;;;72.40;;
7041;SDS011;3562;48.892;9.130;2022-07-06T09:34:02;228.10;;;72.20;;
7041;SDS011;3562;48.892;9.130;2022-07-06T09:36:48;228.68;;;72.43;;
7041;SDS011;3562;48.892;9.130;2022-07-06T09:39:18;228.75;;;72.57;;
7041;SDS011;3562;48.892;9.130;2022-07-06T09:41:45;227.90;;;72.40;;
7041;SDS011;3562;48.892;9.130;2022-07-06T09:44:11;228.20;;;72.50;;
7041;SDS011;3562;48.892;9.130;2022-07-06T09:46:37;227.17;;;72.07;;
7041;SDS011;3562;48.892;9.130;2022-07-06T09:49:03;228.73;;;72.20;;
7041;SDS011;3562;48.892;9.130;2022-07-06T09:51:32;228.55;;;72.22;;
7041;SDS011;3562;48.892;9.130;2022-07-06T09:54:00;228.48;;;72.55;;
7041;SDS011;3562;48.892;9.130;2022-07-06T09:56:36;227.60;;;72.60;;
7041;SDS011;3562;48.892;9.130;2022-07-06T09:59:12;226.80;;;72.20;;
7041;SDS011;3562;48.892;9.130;2022-07-06T10:01:39;227.37;;;72.30;;
7041;SDS011;3562;48.892;9.130;2022-07-06T10:04:06;228.10;;;72.30;;
7041;SDS011;3562;48.892;9.130;2022-07-06T10:06:32;228.63;;;72.18;;
7041;SDS011;3562;48.892;9.130;2022-07-06T10:08:58;229.50;;;72.30;;
7041;SDS011;3562;48.892;9.130;2022-07-06T10:11:25;229.52;;;72.32;;
7041;SDS011;3562;48.892;9.130;2022-07-06T10:13:53;228.75;;;72.20;;
7041;SDS011;3562;48.892;9.130;2022-07-06T10:16:21;228.35;;;72.20;;
7041;SDS011;3562;48.892;9.130;2022-07-06T10:18:47;227.20;;;71.75;;
7041;SDS011;3562;48.892;9.130;2022-07-06T10:21:15;228.87;;;72.20;;
7041;SDS011;3562;48.892;9.130;2022-07-06T10:23:41;229.70;;;72.30;;
7041;SDS011;3562;48.892;9.130;2022-07-06T10:26:07;230.03;;;72.30;;
7041;SDS011;3562;48.892;9.130;2022-07-06T10:28:33;230.48;;;72.32;;
7041;SDS011;3562;48.892;9.130;2022-07-06T10:30:59;229.60;;;72.13;;
7041;SDS011;3562;48.892;9.130;2022-07-06T10:33:26;230.10;;;72.07;;
7041;SDS011;3562;48.892;9.130;2022-07-06T10:35:52;229.52;;;72.20;;
7041;SDS011;3562;48.892;9.130;2022-07-06T10:38:20;229.20;;;72.40;;
7041;SDS011;3562;48.892;9.130;2022-07-06T10:40:58;228.45;;;72.20;;
7041;SDS011;3562;48.892;9.130;2022-07-06T10:43:52;228.25;;;72.50;;
7041;SDS011;3562;48.892;9.130;2022-07-06T10:46:17;227.95;;;72.53;;
7041;SDS011;3562;48.892;9.130;2022-07-06T10:48:45;226.18;;;72.03;;
7041;SDS011;3562;48.892;9.130;2022-07-06T10:51:12;226.70;;;72.53;;
7041;SDS011;3562;48.892;9.130;2022-07-06T10:53:49;225.70;;;72.70;;
7041;SDS011;3562;48.892;9.130;2022-07-06T10:56:20;223.83;;;72.33;;
7041;SDS011;3562;48.892;9.130;2022-07-06T10:59:01;223.60;;;72.25;;
7041;SDS011;3562;48.892;9.130;2022-07-06T11:01:27;223.20;;;72.40;;
7041;SDS011;3562;48.892;9.130;2022-07-06T11:06:23;222.93;;;72.30;;
7041;SDS011;3562;48.892;9.130;2022-07-06T11:09:00;223.73;;;73.03;;
7041;SDS011;3562;48.892;9.130;2022-07-06T11:14:02;223.07;;;72.50;;
7041;SDS011;3562;48.892;9.130;2022-07-06T11:16:28;224.00;;;72.70;;
7041;SDS011;3562;48.892;9.130;2022-07-06T11:19:07;224.33;;;72.60;;
7041;SDS011;3562;48.892;9.130;2022-07-06T11:21:45;224.68;;;72.60;;
7041;SDS011;3562;48.892;9.130;2022-07-06T11:24:12;225.63;;;73.03;;
7041;SDS011;3562;48.892;9.130;2022-07-06T11:26:39;224.68;;;72.78;;
7041;SDS011;3562;48.892;9.130;2022-07-06T11:29:07;224.10;;;72.50;;
7041;SDS011;3562;48.892;9.130;2022-07-06T11:31:38;223.77;;;72.45;;
7041;SDS011;3562;48.892;9.130;2022-07-06T11:34:05;224.53;;;72.60;;
7041;SDS011;3562;48.892;9.130;2022-07-06T11:36:31;223.55;;;72.70;;
7041;SDS011;3562;48.892;9.130;2022-07-06T11:38:57;222.55;;;72.63;;
7041;SDS011;3562;48.892;9.130;2022-07-06T11:41:24;223.17;;;72.80;;
7041;SDS011;3562;48.892;9.130;2022-07-06T11:43:50;221.45;;;72.45;;
7041;SDS011;3562;48.892;9.130;2022-07-06T11:46:26;221.20;;;72.40;;
7041;SDS011;3562;48.892;9.130;2022-07-06T11:48:54;223.25;;;72.90;;
7041;SDS011;3562;48.892;9.130;2022-07-06T11:51:20;222.25;;;72.80;;
7041;SDS011;3562;48.892;9.130;2022-07-06T11:53:48;219.93;;;72.60;;
7041;SDS011;3562;48.892;9.130;2022-07-06T11:56:14;218.40;;;72.30;;
7041;SDS011;3562;48.892;9.130;2022-07-06T11:58:43;218.75;;;72.10;;
7041;SDS011;3562;48.892;9.130;2022-07-06T12:01:12;220.20;;;72.60;;
7041;SDS011;3562;48.892;9.130;2022-07-06T12:03:38;219.93;;;72.60;;
7041;SDS011;3562;48.892;9.130;2022-07-06T12:06:05;221.03;;;72.70;;
7041;SDS011;3562;48.892;9.130;2022-07-06T12:08:32;220.18;;;72.38;;
7041;SDS011;3562;48.892;9.130;2022-07-06T12:10:59;221.93;;;73.88;;
7041;SDS011;3562;48.892;9.130;2022-07-06T12:13:25;215.83;;;72.30;;
7041;SDS011;3562;48.892;9.130;2022-07-06T12:15:52;217.55;;;73.00;;
7041;SDS011;3562;48.892;9.130;2022-07-06T12:18:18;215.93;;;72.40;;
7041;SDS011;3562;48.892;9.130;2022-07-06T12:20:44;217.40;;;72.50;;
7041;SDS011;3562;48.892;9.130;2022-07-06T12:23:10;216.03;;;72.13;;
7041;SDS011;3562;48.892;9.130;2022-07-06T12:25:36;218.30;;;72.70;;
7041;SDS011;3562;48.892;9.130;2022-07-06T12:28:03;216.10;;;72.03;;
7041;SDS011;3562;48.892;9.130;2022-07-06T12:30:29;219.65;;;72.47;;
7041;SDS011;3562;48.892;9.130;2022-07-06T12:33:11;223.13;;;72.50;;
7041;SDS011;3562;48.892;9.130;2022-07-06T12:35:38;223.98;;;72.70;;
7041;SDS011;3562;48.892;9.130;2022-07-06T12:38:05;225.13;;;73.40;;
7041;SDS011;3562;48.892;9.130;2022-07-06T12:40:31;222.02;;;72.68;;
7041;SDS011;3562;48.892;9.130;2022-07-06T12:42:57;219.77;;;72.50;;
7041;SDS011;3562;48.892;9.130;2022-07-06T12:45:27;219.77;;;72.50;;
7041;SDS011;3562;48.892;9.130;2022-07-06T12:48:02;220.57;;;72.50;;
7041;SDS011;3562;48.892;9.130;2022-07-06T12:50:33;222.23;;;72.88;;
7041;SDS011;3562;48.892;9.130;2022-07-06T12:53:00;220.27;;;72.50;;
7041;SDS011;3562;48.892;9.130;2022-07-06T12:55:27;221.43;;;72.60;;
7041;SDS011;3562;48.892;9.130;2022-07-06T12:57:53;221.77;;;72.60;;
7041;SDS011;3562;48.892;9.130;2022-07-06T13:00:20;224.47;;;72.80;;
7041;SDS011;3562;48.892;9.130;2022-07-06T13:02:50;225.27;;;72.70;;
7041;SDS011;3562;48.892;9.130;2022-07-06T13:05:24;225.07;;;72.65;;
7041;SDS011;3562;48.892;9.130;2022-07-06T13:07:53;225.35;;;72.43;;
7041;SDS011;3562;48.892;9.130;2022-07-06T13:10:19;226.10;;;72.72;;
7041;SDS011;3562;48.892;9.130;2022-07-06T13:12:46;225.65;;;72.50;;
7041;SDS011;3562;48.892;9.130;2022-07-06T13:15:12;224.38;;;72.63;;
7041;SDS011;3562;48.892;9.130;2022-07-06T13:17:38;222.63;;;72.50;;
7041;SDS011;3562;48.892;9.130;2022-07-06T13:20:08;220.15;;;72.60;;
7041;SDS011;3562;48.892;9.130;2022-07-06T13:22:34;217.90;;;72.57;;
7041;SDS011;3562;48.892;9.130;2022-07-06T13:25:00;214.88;;;72.70;;
7041;SDS011;3562;48.892;9.130;2022-07-06T13:27:26;209.80;;;72.37;;
7041;SDS011;3562;48.892;9.130;2022-07-06T13:29:52;206.77;;;72.32;;
7041;SDS011;3562;48.892;9.130;2022-07-06T13:32:19;206.38;;;72.00;;
7041;SDS011;3562;48.892;9.130;2022-07-06T13:34:46;210.10;;;72.20;;
7041;SDS011;3562;48.892;9.130;2022-07-06T13:37:12;212.10;;;72.30;;
7041;SDS011;3562;48.892;9.130;2022-07-06T13:39:38;213.70;;;72.35;;
7041;SDS011;3562;48.892;9.130;2022-07-06T13:42:04;212.10;;;72.40;;
7041;SDS011;3562;48.892;9.130;2022-07-06T13:44:32;211.77;;;72.30;;
7041;SDS011;3562;48.892;9.130;2022-07-06T13:46:59;214.10;;;72.25;;
7041;SDS011;3562;48.892;9.130;2022-07-06T13:49:25;216.00;;;72.60;;
7041;SDS011;3562;48.892;9.130;2022-07-06T13:51:51;214.95;;;72.68;;
7041;SDS011;3562;48.892;9.130;2022-07-06T13:54:19;213.13;;;72.20;;
7041;SDS011;3562;48.892;9.130;2022-07-06T13:56:45;212.27;;;72.40;;
7041;SDS011;3562;48.892;9.130;2022-07-06T13:59:11;211.40;;;72.30;;
7041;SDS011;3562;48.892;9.130;2022-07-06T14:01:37;209.77;;;72.00;;
7041;SDS011;3562;48.892;9.130;2022-07-06T14:04:03;210.37;;;72.43;;
7041;SDS011;3562;48.892;9.130;2022-07-06T14:06:29;211.52;;;72.30;;
7041;SDS011;3562;48.892;9.130;2022-07-06T14:08:55;210.82;;;72.07;;
7041;SDS011;3562;48.892;9.130;2022-07-06T14:11:21;212.07;;;72.30;;
7041;SDS011;3562;48.892;9.130;2022-07-06T14:13:47;209.98;;;72.20;;
7041;SDS011;3562;48.892;9.130;2022-07-06T14:16:13;207.40;;;72.30;;
7041;SDS011;3562;48.892;9.130;2022-07-06T14:18:39;204.75;;;72.38;;
7041;SDS011;3562;48.892;9.130;2022-07-06T14:21:05;204.02;;;72.13;;
7041;SDS011;3562;48.892;9.130;2022-07-06T14:23:31;206.90;;;72.53;;
7041;SDS011;3562;48.892;9.130;2022-07-06T14:25:57;206.40;;;72.32;;
7041;SDS011;3562;48.892;9.130;2022-07-06T14:28:24;206.57;;;72.30;;
7041;SDS011;3562;48.892;9.130;2022-07-06T14:30:50;208.35;;;72.30;;
7041;SDS011;3562;48.892;9.130;2022-07-06T14:33:16;210.20;;;72.30;;
7041;SDS011;3562;48.892;9.130;2022-07-06T14:35:45;209.80;;;72.30;;
7041;SDS011;3562;48.892;9.130;2022-07-06T14:38:13;210.02;;;72.25;;
7041;SDS011;3562;48.892;9.130;2022-07-06T14:40:39;212.20;;;72.40;;
7041;SDS011;3562;48.892;9.130;2022-07-06T14:43:05;211.77;;;72.70;;
7041;SDS011;3562;48.892;9.130;2022-07-06T14:45:31;210.60;;;72.30;;
7041;SDS011;3562;48.892;9.130;2022-07-06T14:47:57;210.15;;;72.50;;
7041;SDS011;3562;48.892;9.130;2022-07-06T14:50:23;208.40;;;72.50;;
7041;SDS011;3562;48.892;9.130;2022-07-06T14:52:50;208.88;;;72.50;;
7041;SDS011;3562;48.892;9.130;2022-07-06T14:55:16;207.32;;;72.40;;
7041;SDS011;3562;48.892;9.130;2022-07-06T14:57:42;205.60;;;71.70;;
7041;SDS011;3562;48.892;9.130;2022-07-06T15:00:08;206.63;;;72.40;;
7041;SDS011;3562;48.892;9.130;2022-07-06T15:02:34;206.15;;;72.40;;
7041;SDS011;3562;48.892;9.130;2022-07-06T15:05:00;204.88;;;72.10;;
7041;SDS011;3562;48.892;9.130;2022-07-06T15:07:26;206.73;;;72.27;;
7041;SDS011;3562;48.892;9.130;2022-07-06T15:09:53;207.90;;;72.40;;
7041;SDS011;3562;48.892;9.130;2022-07-06T15:12:19;208.27;;;72.43;;
7041;SDS011;3562;48.892;9.130;2022-07-06T15:14:45;208.65;;;72.38;;
7041;SDS011;3562;48.892;9.130;2022-07-06T15:17:11;210.25;;;72.32;;
7041;SDS011;3562;48.892;9.130;2022-07-06T15:19:37;210.20;;;73.20;;
7041;SDS011;3562;48.892;9.130;2022-07-06T15:22:03;210.82;;;72.90;;
7041;SDS011;3562;48.892;9.130;2022-07-06T15:24:29;215.00;;;72.50;;
7041;SDS011;3562;48.892;9.130;2022-07-06T15:26:55;216.73;;;72.80;;
7041;SDS011;3562;48.892;9.130;2022-07-06T15:29:21;217.70;;;72.80;;
7041;SDS011;3562;48.892;9.130;2022-07-06T15:31:47;219.38;;;72.70;;
7041;SDS011;3562;48.892;9.130;2022-07-06T15:34:13;220.87;;;72.83;;
7041;SDS011;3562;48.892;9.130;2022-07-06T15:36:39;221.93;;;72.90;;
7041;SDS011;3562;48.892;9.130;2022-07-06T15:39:05;222.13;;;72.90;;
7041;SDS011;3562;48.892;9.130;2022-07-06T15:41:32;223.85;;;72.80;;
7041;SDS011;3562;48.892;9.130;2022-07-06T15:43:58;224.13;;;72.75;;
7041;SDS011;3562;48.892;9.130;2022-07-06T15:46:24;226.68;;;72.85;;
7041;SDS011;3562;48.892;9.130;2022-07-06T15:48:50;227.07;;;72.45;;
7041;SDS011;3562;48.892;9.130;2022-07-06T15:51:16;227.20;;;72.55;;
7041;SDS011;3562;48.892;9.130;2022-07-06T15:53:42;228.13;;;72.90;;
7041;SDS011;3562;48.892;9.130;2022-07-06T15:56:13;227.73;;;72.70;;
7041;SDS011;3562;48.892;9.130;2022-07-06T15:58:39;228.00;;;72.72;;
7041;SDS011;3562;48.892;9.130;2022-07-06T16:01:05;229.23;;;72.90;;
7041;SDS011;3562;48.892;9.130;2022-07-06T16:03:31;228.43;;;73.25;;
7041;SDS011;3562;48.892;9.130;2022-07-06T16:05:57;227.10;;;72.60;;
7041;SDS011;3562;48.892;9.130;2022-07-06T16:08:23;227.98;;;72.97;;
7041;SDS011;3562;48.892;9.130;2022-07-06T16:10:50;228.50;;;72.65;;
7041;SDS011;3562;48.892;9.130;2022-07-06T16:13:16;228.52;;;72.82;;
7041;SDS011;3562;48.892;9.130;2022-07-06T16:15:44;228.50;;;72.85;;
7041;SDS011;3562;48.892;9.130;2022-07-06T16:18:10;226.20;;;72.77;;
7041;SDS011;3562;48.892;9.130;2022-07-06T16:20:36;225.75;;;73.00;;
7041;SDS011;3562;48.892;9.130;2022-07-06T16:23:02;223.85;;;72.90;;
7041;SDS011;3562;48.892;9.130;2022-07-06T16:25:28;222.27;;;72.70;;
7041;SDS011;3562;48.892;9.130;2022-07-06T16:27:54;222.10;;;73.40;;
7041;SDS011;3562;48.892;9.130;2022-07-06T16:30:22;221.18;;;73.25;;
7041;SDS011;3562;48.892;9.130;2022-07-06T16:32:48;221.63;;;72.70;;
7041;SDS011;3562;48.892;9.130;2022-07-06T16:35:14;222.05;;;72.50;;
7041;SDS011;3562;48.892;9.130;2022-07-06T16:37:41;223.73;;;72.78;;
7041;SDS011;3562;48.892;9.130;2022-07-06T16:40:07;223.85;;;72.60;;
7041;SDS011;3562;48.892;9.130;2022-07-06T16:42:33;224.00;;;72.30;;
7041;SDS011;3562;48.892;9.130;2022-07-06T16:44:59;225.43;;;72.50;;
7041;SDS011;3562;48.892;9.130;2022-07-06T16:47:28;225.05;;;72.55;;
7041;SDS011;3562;48.892;9.130;2022-07-06T16:49:54;226.90;;;72.80;;
7041;SDS011;3562;48.892;9.130;2022-07-06T16:52:22;227.65;;;72.55;;
7041;SDS011;3562;48.892;9.130;2022-07-06T16:54:48;227.57;;;72.47;;
7041;SDS011;3562;48.892;9.130;2022-07-06T16:57:15;229.02;;;72.38;;
7041;SDS011;3562;48.892;9.130;2022-07-06T16:59:41;230.50;;;72.93;;
7041;SDS011;3562;48.892;9.130;2022-07-06T17:02:07;230.80;;;72.70;;
7041;SDS011;3562;48.892;9.130;2022-07-06T17:04:33;229.40;;;72.47;;
7041;SDS011;3562;48.892;9.130;2022-07-06T17:06:59;231.43;;;72.85;;
7041;SDS011;3562;48.892;9.130;2022-07-06T17:09:25;230.90;;;72.88;;
7041;SDS011;3562;48.892;9.130;2022-07-06T17:11:51;230.43;;;72.60;;
7041;SDS011;3562;48.892;9.130;2022-07-06T17:14:17;230.30;;;72.65;;
7041;SDS011;3562;48.892;9.130;2022-07-06T17:16:44;230.45;;;73.07;;
7041;SDS011;3562;48.892;9.130;2022-07-06T17:19:10;229.40;;;72.50;;
7041;SDS011;3562;48.892;9.130;2022-07-06T17:21:36;229.50;;;72.57;;
7041;SDS011;3562;48.892;9.130;2022-07-06T17:24:02;230.00;;;72.70;;
7041;SDS011;3562;48.892;9.130;2022-07-06T17:26:28;229.98;;;72.53;;
7041;SDS011;3562;48.892;9.130;2022-07-06T17:28:55;229.35;;;72.53;;
7041;SDS011;3562;48.892;9.130;2022-07-06T17:31:21;229.52;;;72.40;;
7041;SDS011;3562;48.892;9.130;2022-07-06T17:33:47;230.13;;;72.40;;
7041;SDS011;3562;48.892;9.130;2022-07-06T17:36:14;231.35;;;72.70;;
7041;SDS011;3562;48.892;9.130;2022-07-06T17:38:40;231.77;;;72.75;;
7041;SDS011;3562;48.892;9.130;2022-07-06T17:41:06;232.88;;;72.80;;
7041;SDS011;3562;48.892;9.130;2022-07-06T17:43:32;232.35;;;72.88;;
7041;SDS011;3562;48.892;9.130;2022-07-06T17:45:58;230.43;;;72.40;;
7041;SDS011;3562;48.892;9.130;2022-07-06T17:48:24;232.02;;;72.80;;
7041;SDS011;3562;48.892;9.130;2022-07-06T17:50:50;232.30;;;72.93;;
7041;SDS011;3562;48.892;9.130;2022-07-06T17:53:16;231.43;;;72.50;;
7041;SDS011;3562;48.892;9.130;2022-07-06T17:55:42;231.05;;;72.63;;
7041;SDS011;3562;48.892;9.130;2022-07-06T17:58:10;231.70;;;72.75;;
7041;SDS011;3562;48.892;9.130;2022-07-06T18:00:38;231.65;;;72.70;;
7041;SDS011;3562;48.892;9.130;2022-07-06T18:03:04;232.68;;;72.80;;
7041;SDS011;3562;48.892;9.130;2022-07-06T18:05:31;232.57;;;72.60;;
7041;SDS011;3562;48.892;9.130;2022-07-06T18:07:57;233.38;;;72.80;;
7041;SDS011;3562;48.892;9.130;2022-07-06T18:10:23;233.97;;;72.80;;
7041;SDS011;3562;48.892;9.130;2022-07-06T18:12:49;232.00;;;72.57;;
7041;SDS011;3562;48.892;9.130;2022-07-06T18:15:15;231.73;;;72.30;;
7041;SDS011;3562;48.892;9.130;2022-07-06T18:17:42;232.65;;;72.70;;
7041;SDS011;3562;48.892;9.130;2022-07-06T18:20:08;233.13;;;72.80;;
7041;SDS011;3562;48.892;9.130;2022-07-06T18:22:34;233.38;;;72.85;;
7041;SDS011;3562;48.892;9.130;2022-07-06T18:25:00;232.18;;;72.10;;
7041;SDS011;3562;48.892;9.130;2022-07-06T18:27:26;234.50;;;72.70;;
7041;SDS011;3562;48.892;9.130;2022-07-06T18:29:52;234.18;;;72.63;;
7041;SDS011;3562;48.892;9.130;2022-07-06T18:32:18;232.93;;;72.47;;
7041;SDS011;3562;48.892;9.130;2022-07-06T18:34:44;233.18;;;72.60;;
7041;SDS011;3562;48.892;9.130;2022-07-06T18:37:10;233.57;;;72.70;;
7041;SDS011;3562;48.892;9.130;2022-07-06T18:39:36;234.07;;;72.90;;
7041;SDS011;3562;48.892;9.130;2022-07-06T18:42:03;232.17;;;72.43;;
7041;SDS011;3562;48.892;9.130;2022-07-06T18:44:29;231.90;;;72.47;;
7041;SDS011;3562;48.892;9.130;2022-07-06T18:46:55;233.38;;;72.90;;
7041;SDS011;3562;48.892;9.130;2022-07-06T18:49:21;232.90;;;72.60;;
7041;SDS011;3562;48.892;9.130;2022-07-06T18:51:47;231.65;;;72.40;;
7041;SDS011;3562;48.892;9.130;2022-07-06T18:54:13;232.07;;;72.88;;
7041;SDS011;3562;48.892;9.130;2022-07-06T18:56:40;232.98;;;72.90;;
7041;SDS011;3562;48.892;9.130;2022-07-06T18:59:06;233.37;;;72.80;;
7041;SDS011;3562;48.892;9.130;2022-07-06T19:01:32;233.15;;;72.53;;
7041;SDS011;3562;48.892;9.130;2022-07-06T19:03:59;233.65;;;72.60;;
7041;SDS011;3562;48.892;9.130;2022-07-06T19:06:25;233.68;;;72.97;;
7041;SDS011;3562;48.892;9.130;2022-07-06T19:08:51;230.65;;;72.60;;
7041;SDS011;3562;48.892;9.130;2022-07-06T19:11:17;230.10;;;72.63;;
7041;SDS011;3562;48.892;9.130;2022-07-06T19:13:43;230.05;;;72.40;;
7041;SDS011;3562;48.892;9.130;2022-07-06T19:16:09;232.27;;;72.68;;
7041;SDS011;3562;48.892;9.130;2022-07-06T19:18:36;233.13;;;72.60;;
7041;SDS011;3562;48.892;9.130;2022-07-06T19:21:03;235.17;;;72.90;;
